Time;durP1;ratioP1;P1;durP2;ratioP2;P2;SDS_P1;SDS_P2;PMS_P1;PMS_P2;Temp;Humidity;BMP_temperature;BMP_pressure;BME280_temperature;BME280_humidity;BME280_pressure;Samples;Min_cycle;Max_cycle;Signal;HPM_P1;HPM_P2
2024/01/09 00:01:04;;;;;;;6.63;3.85;;;;;;;;;;5072385;28;20041;-71
2024/01/09 00:03:30;;;;;;;9.43;3.53;;;;;;;;;;5074749;28;20554;-71
2024/01/09 00:05:56;;;;;;;9.52;3.45;;;;;;;;;;5075146;28;20062;-71
2024/01/09 00:08:22;;;;;;;6.97;3.17;;;;;;;;;;5074861;28;20036;-71
2024/01/09 00:10:48;;;;;;;5.47;3.20;;;;;;;;;;5075103;28;20036;-71
2024/01/09 00:13:14;;;;;;;6.85;3.58;;;;;;;;;;5074723;28;20049;-71
2024/01/09 00:15:40;;;;;;;8.27;3.13;;;;;;;;;;5075000;28;20040;-71
2024/01/09 00:18:06;;;;;;;5.68;3.00;;;;;;;;;;5074730;28;20567;-71
2024/01/09 00:20:32;;;;;;;7.65;3.58;;;;;;;;;;5076117;28;20041;-71
2024/01/09 00:22:58;;;;;;;7.13;3.10;;;;;;;;;;5074579;28;20040;-71
2024/01/09 00:25:24;;;;;;;6.85;3.08;;;;;;;;;;5076115;28;20075;-71
2024/01/09 00:27:50;;;;;;;6.93;3.28;;;;;;;;;;5074507;28;20488;-71
2024/01/09 00:30:16;;;;;;;5.80;3.40;;;;;;;;;;5076067;28;20033;-71
2024/01/09 00:32:47;;;;;;;7.47;3.47;;;;;;;;;;5075990;28;20378;-71
2024/01/09 00:35:16;;;;;;;7.22;3.40;;;;;;;;;;5074384;28;20094;-71
2024/01/09 00:37:42;;;;;;;8.23;3.63;;;;;;;;;;5074616;28;20051;-71
2024/01/09 00:40:08;;;;;;;5.20;3.35;;;;;;;;;;5075769;28;20139;-71
2024/01/09 00:42:34;;;;;;;5.85;3.10;;;;;;;;;;5074519;28;20047;-71
2024/01/09 00:45:01;;;;;;;8.77;3.63;;;;;;;;;;5075704;28;20068;-71
2024/01/09 00:47:31;;;;;;;6.97;3.90;;;;;;;;;;5074156;28;20037;-71
2024/01/09 00:49:57;;;;;;;7.80;3.45;;;;;;;;;;5075732;28;20048;-71
2024/01/09 00:52:23;;;;;;;7.93;3.40;;;;;;;;;;5074380;28;20101;-71
2024/01/09 00:54:49;;;;;;;6.20;3.30;;;;;;;;;;5075515;28;20390;-71
2024/01/09 00:57:15;;;;;;;6.63;3.67;;;;;;;;;;5075538;28;20047;-71
2024/01/09 00:59:41;;;;;;;6.20;3.35;;;;;;;;;;5074114;28;20076;-71
2024/01/09 01:02:08;;;;;;;8.10;3.33;;;;;;;;;;5074212;28;20051;-71
2024/01/09 01:04:37;;;;;;;6.55;3.13;;;;;;;;;;5074987;28;20044;-71
2024/01/09 01:07:04;;;;;;;6.18;3.25;;;;;;;;;;5073831;28;20044;-71
2024/01/09 01:09:30;;;;;;;6.03;3.30;;;;;;;;;;5074059;28;20136;-71
2024/01/09 01:11:56;;;;;;;9.40;3.17;;;;;;;;;;5073442;28;20623;-71
2024/01/09 01:14:23;;;;;;;4.85;2.85;;;;;;;;;;5075144;28;20085;-71
2024/01/09 01:16:49;;;;;;;5.35;3.20;;;;;;;;;;5073611;28;20045;-71
2024/01/09 01:19:16;;;;;;;7.60;3.25;;;;;;;;;;5075021;28;20040;-71
2024/01/09 01:21:42;;;;;;;8.18;3.45;;;;;;;;;;5075057;28;20047;-71
2024/01/09 01:24:08;;;;;;;6.57;3.38;;;;;;;;;;5073409;28;20041;-71
2024/01/09 01:26:35;;;;;;;6.28;3.10;;;;;;;;;;5073686;28;20105;-71
2024/01/09 01:29:01;;;;;;;6.00;3.53;;;;;;;;;;5074919;28;20041;-71
2024/01/09 01:31:27;;;;;;;7.22;3.30;;;;;;;;;;5075106;28;20393;-71
2024/01/09 01:33:53;;;;;;;4.88;3.25;;;;;;;;;;5073214;28;20040;-71
2024/01/09 01:36:19;;;;;;;7.03;3.05;;;;;;;;;;5073211;28;20048;-71
2024/01/09 01:38:45;;;;;;;6.13;3.05;;;;;;;;;;5073218;28;20051;-71
2024/01/09 01:41:11;;;;;;;7.07;2.90;;;;;;;;;;5073053;28;20101;-71
2024/01/09 01:43:37;;;;;;;5.68;3.17;;;;;;;;;;5074560;28;20086;-71
2024/01/09 01:46:04;;;;;;;6.90;2.90;;;;;;;;;;5073035;28;20040;-71
2024/01/09 01:48:31;;;;;;;4.72;2.78;;;;;;;;;;5072966;28;20045;-71
2024/01/09 01:50:57;;;;;;;5.38;3.10;;;;;;;;;;5074467;28;20047;-71
2024/01/09 01:53:23;;;;;;;7.90;3.35;;;;;;;;;;5074350;28;20043;-71
2024/01/09 01:55:49;;;;;;;6.10;2.83;;;;;;;;;;5073072;28;20044;-71
2024/01/09 01:58:16;;;;;;;5.53;3.15;;;;;;;;;;5074317;28;20573;-71
2024/01/09 02:00:42;;;;;;;7.05;2.70;;;;;;;;;;5072663;28;20431;-71
2024/01/09 02:03:11;;;;;;;7.07;3.42;;;;;;;;;;5072479;28;20501;-71
2024/01/09 02:05:37;;;;;;;5.45;3.25;;;;;;;;;;5072639;28;20044;-71
2024/01/09 02:08:04;;;;;;;5.45;2.72;;;;;;;;;;5072618;28;20044;-71
2024/01/09 02:10:29;;;;;;;5.90;3.10;;;;;;;;;;5072512;28;20054;-71
2024/01/09 02:12:55;;;;;;;5.88;3.05;;;;;;;;;;5072677;28;20036;-71
2024/01/09 02:15:22;;;;;;;5.45;3.13;;;;;;;;;;5072436;28;20055;-71
2024/01/09 02:17:48;;;;;;;8.50;3.42;;;;;;;;;;5073968;28;20072;-71
2024/01/09 02:20:14;;;;;;;9.23;3.17;;;;;;;;;;5072447;28;20051;-71
2024/01/09 02:22:41;;;;;;;7.80;3.38;;;;;;;;;;5072273;28;20064;-71
2024/01/09 02:25:07;;;;;;;7.70;2.90;;;;;;;;;;5071951;28;20067;-71
2024/01/09 02:27:48;;;;;;;8.65;2.90;;;;;;;;;;5072265;28;20047;-71
2024/01/09 02:30:14;;;;;;;6.88;3.75;;;;;;;;;;5072266;28;20040;-71
2024/01/09 02:32:40;;;;;;;5.25;2.92;;;;;;;;;;5072210;28;20050;-71
2024/01/09 02:35:06;;;;;;;7.07;3.25;;;;;;;;;;5072077;28;20046;-71
2024/01/09 02:37:32;;;;;;;7.78;3.67;;;;;;;;;;5072156;28;20076;-71
2024/01/09 02:40:00;;;;;;;5.20;3.10;;;;;;;;;;5072036;28;20142;-71
2024/01/09 02:42:26;;;;;;;6.30;3.40;;;;;;;;;;5073578;28;20090;-71
2024/01/09 02:44:54;;;;;;;7.68;3.45;;;;;;;;;;5073499;28;20048;-71
2024/01/09 02:47:20;;;;;;;6.68;2.95;;;;;;;;;;5073557;28;20192;-71
2024/01/09 02:49:46;;;;;;;8.73;3.78;;;;;;;;;;5071956;28;20051;-71
2024/01/09 02:52:12;;;;;;;7.97;3.80;;;;;;;;;;5071969;28;20123;-71
2024/01/09 02:54:38;;;;;;;8.18;3.47;;;;;;;;;;5072100;28;20101;-71
2024/01/09 02:57:04;;;;;;;7.47;3.47;;;;;;;;;;5073372;28;20393;-71
2024/01/09 02:59:30;;;;;;;7.82;3.53;;;;;;;;;;5071777;28;20076;-71
2024/01/09 03:01:56;;;;;;;7.20;3.20;;;;;;;;;;5071881;28;20044;-71
2024/01/09 03:04:22;;;;;;;8.52;3.33;;;;;;;;;;5071834;28;20036;-71
2024/01/09 03:06:48;;;;;;;7.30;3.00;;;;;;;;;;5071785;28;20405;-71
2024/01/09 03:09:16;;;;;;;8.82;3.47;;;;;;;;;;5071763;28;20040;-71
2024/01/09 03:11:42;;;;;;;6.43;3.72;;;;;;;;;;5071961;28;20048;-71
2024/01/09 03:14:07;;;;;;;5.20;2.75;;;;;;;;;;5073171;28;20508;-71
2024/01/09 03:16:33;;;;;;;7.93;3.45;;;;;;;;;;5071944;28;20133;-71
2024/01/09 03:18:59;;;;;;;6.13;3.40;;;;;;;;;;5073098;28;20501;-71
2024/01/09 03:21:25;;;;;;;6.97;3.20;;;;;;;;;;5071590;28;20042;-71
2024/01/09 03:23:51;;;;;;;9.25;3.20;;;;;;;;;;5073074;28;20115;-71
2024/01/09 03:26:17;;;;;;;5.10;2.72;;;;;;;;;;5071602;28;20133;-71
2024/01/09 03:28:44;;;;;;;7.30;3.10;;;;;;;;;;5071579;28;20066;-71
2024/01/09 03:31:18;;;;;;;5.78;2.95;;;;;;;;;;5071830;28;20110;-71
2024/01/09 03:33:44;;;;;;;6.30;2.70;;;;;;;;;;5071484;28;20124;-71
2024/01/09 03:36:10;;;;;;;9.32;3.42;;;;;;;;;;5074615;28;20088;-71
2024/01/09 03:38:36;;;;;;;7.30;3.20;;;;;;;;;;5075525;28;20051;-71
2024/01/09 03:41:02;;;;;;;6.55;3.00;;;;;;;;;;5076900;28;20032;-71
2024/01/09 03:43:28;;;;;;;5.88;3.00;;;;;;;;;;5075344;28;20127;-71
2024/01/09 03:45:56;;;;;;;6.43;3.00;;;;;;;;;;5076801;28;20048;-71
2024/01/09 03:48:22;;;;;;;4.97;2.85;;;;;;;;;;5076806;28;20483;-71
2024/01/09 03:50:48;;;;;;;6.20;3.20;;;;;;;;;;5075263;28;20052;-71
2024/01/09 03:53:14;;;;;;;6.70;3.03;;;;;;;;;;5076627;28;20040;-71
2024/01/09 03:55:41;;;;;;;6.30;2.88;;;;;;;;;;5075192;28;20053;-71
2024/01/09 03:58:07;;;;;;;7.13;3.13;;;;;;;;;;5076533;28;20068;-71
2024/01/09 04:00:33;;;;;;;5.72;3.10;;;;;;;;;;5075059;28;20045;-71
2024/01/09 04:03:00;;;;;;;7.93;3.10;;;;;;;;;;5074799;28;20044;-71
2024/01/09 04:05:26;;;;;;;5.07;2.92;;;;;;;;;;5058381;28;20036;-71
2024/01/09 04:07:52;;;;;;;5.53;3.15;;;;;;;;;;5074927;28;20037;-71
2024/01/09 04:10:18;;;;;;;4.80;2.72;;;;;;;;;;5075141;28;20048;-71
2024/01/09 04:12:44;;;;;;;6.05;3.10;;;;;;;;;;5074856;28;20094;-71
2024/01/09 04:15:10;;;;;;;7.93;4.05;;;;;;;;;;5074747;28;20048;-71
2024/01/09 04:17:38;;;;;;;8.13;3.28;;;;;;;;;;5075084;28;20060;-71
2024/01/09 04:20:04;;;;;;;7.75;3.42;;;;;;;;;;5074668;28;20048;-71
2024/01/09 04:22:30;;;;;;;5.50;3.13;;;;;;;;;;5074909;28;20076;-71
2024/01/09 04:24:56;;;;;;;6.50;3.08;;;;;;;;;;5076119;28;20037;-71
2024/01/09 04:27:23;;;;;;;5.07;2.78;;;;;;;;;;5074583;28;20126;-71
2024/01/09 04:29:49;;;;;;;6.88;3.60;;;;;;;;;;5074542;28;20044;-71
2024/01/09 04:32:15;;;;;;;6.15;2.90;;;;;;;;;;5076035;28;20128;-71
2024/01/09 04:34:41;;;;;;;6.70;2.95;;;;;;;;;;5074377;28;20109;-71
2024/01/09 04:37:06;;;;;;;7.07;3.25;;;;;;;;;;5074663;28;20142;-71
2024/01/09 04:39:33;;;;;;;5.18;2.85;;;;;;;;;;5074335;28;20413;-71
2024/01/09 04:41:59;;;;;;;7.32;3.15;;;;;;;;;;5074317;28;20075;-71
2024/01/09 04:44:25;;;;;;;5.90;2.90;;;;;;;;;;5074203;28;20040;-71
2024/01/09 04:46:50;;;;;;;8.07;3.55;;;;;;;;;;5073792;28;20048;-71
2024/01/09 04:49:16;;;;;;;5.93;3.83;;;;;;;;;;5075701;28;20544;-71
2024/01/09 04:51:42;;;;;;;7.10;3.70;;;;;;;;;;5074160;28;20052;-71
2024/01/09 04:54:08;;;;;;;7.70;3.20;;;;;;;;;;5074043;28;20036;-71
2024/01/09 04:56:34;;;;;;;6.72;3.22;;;;;;;;;;5075568;28;20044;-71
2024/01/09 04:59:01;;;;;;;9.75;4.93;;;;;;;;;;5074177;28;20032;-71
2024/01/09 05:01:28;;;;;;;6.28;3.30;;;;;;;;;;5073975;28;20409;-71
2024/01/09 05:03:54;;;;;;;6.47;3.30;;;;;;;;;;5073712;28;20390;-71
2024/01/09 05:06:20;;;;;;;6.30;3.33;;;;;;;;;;5073901;28;20046;-71
2024/01/09 05:08:47;;;;;;;7.63;3.22;;;;;;;;;;5073843;28;20037;-71
2024/01/09 05:11:13;;;;;;;7.13;3.42;;;;;;;;;;5073810;28;20044;-71
2024/01/09 05:13:39;;;;;;;5.22;2.90;;;;;;;;;;5075242;28;20090;-71
2024/01/09 05:16:05;;;;;;;6.53;2.70;;;;;;;;;;5075195;28;20123;-71
2024/01/09 05:18:31;;;;;;;5.03;2.78;;;;;;;;;;5075164;28;20048;-71
2024/01/09 05:20:57;;;;;;;7.75;3.25;;;;;;;;;;5075063;28;20048;-71
2024/01/09 05:23:23;;;;;;;6.00;2.75;;;;;;;;;;5073476;28;20036;-71
2024/01/09 05:25:50;;;;;;;6.68;3.00;;;;;;;;;;5073515;28;20146;-71
2024/01/09 05:28:16;;;;;;;5.32;3.08;;;;;;;;;;5073435;28;20037;-71
2024/01/09 05:30:42;;;;;;;6.63;3.17;;;;;;;;;;5073627;28;20037;-71
2024/01/09 05:33:08;;;;;;;5.50;2.80;;;;;;;;;;5073272;28;20040;-71
2024/01/09 05:35:34;;;;;;;4.40;2.80;;;;;;;;;;5074815;28;20036;-71
2024/01/09 05:38:00;;;;;;;4.38;2.90;;;;;;;;;;5073491;28;20052;-71
2024/01/09 05:40:26;;;;;;;8.50;3.20;;;;;;;;;;5073188;28;20036;-71
2024/01/09 05:42:52;;;;;;;5.75;3.05;;;;;;;;;;5074589;28;20370;-71
2024/01/09 05:45:18;;;;;;;5.70;3.10;;;;;;;;;;5073140;28;20041;-71
2024/01/09 05:47:44;;;;;;;4.97;3.03;;;;;;;;;;5073263;28;20048;-71
2024/01/09 05:50:10;;;;;;;7.20;2.92;;;;;;;;;;5074531;28;20044;-71
2024/01/09 05:52:36;;;;;;;5.07;2.97;;;;;;;;;;5072957;28;20044;-70
2024/01/09 05:55:06;;;;;;;5.13;2.60;;;;;;;;;;5072835;28;20041;-70
2024/01/09 05:57:32;;;;;;;5.47;3.10;;;;;;;;;;5072637;28;20131;-70
2024/01/09 05:59:58;;;;;;;6.00;3.20;;;;;;;;;;5073177;28;20515;-70
2024/01/09 06:02:25;;;;;;;5.22;3.20;;;;;;;;;;5072938;28;20037;-70
2024/01/09 06:04:51;;;;;;;8.32;3.80;;;;;;;;;;5072554;28;20098;-70
2024/01/09 06:07:17;;;;;;;9.65;4.70;;;;;;;;;;5072935;28;20135;-70
2024/01/09 06:09:45;;;;;;;8.82;4.40;;;;;;;;;;5072642;28;20044;-70
2024/01/09 06:12:11;;;;;;;9.18;4.18;;;;;;;;;;5072575;28;20115;-70
2024/01/09 06:14:37;;;;;;;6.70;3.60;;;;;;;;;;5073990;28;20152;-70
2024/01/09 06:17:03;;;;;;;7.03;3.70;;;;;;;;;;5074035;28;20040;-70
2024/01/09 06:19:29;;;;;;;9.32;4.43;;;;;;;;;;5072370;28;20041;-70
2024/01/09 06:21:55;;;;;;;10.07;4.53;;;;;;;;;;5072394;28;20047;-70
2024/01/09 06:24:21;;;;;;;7.30;3.97;;;;;;;;;;5072530;28;20044;-70
2024/01/09 06:26:47;;;;;;;10.68;4.30;;;;;;;;;;5072567;28;20037;-70
2024/01/09 06:29:13;;;;;;;7.47;3.97;;;;;;;;;;5073837;28;20504;-70
2024/01/09 06:31:40;;;;;;;8.60;3.80;;;;;;;;;;5072445;28;20076;-70
2024/01/09 06:34:07;;;;;;;8.00;3.35;;;;;;;;;;5073677;28;20048;-70
2024/01/09 06:36:33;;;;;;;8.60;3.63;;;;;;;;;;5072402;28;20090;-70
2024/01/09 06:38:59;;;;;;;7.07;3.58;;;;;;;;;;5072130;28;20417;-70
2024/01/09 06:41:25;;;;;;;7.18;3.15;;;;;;;;;;5072043;28;20055;-70
2024/01/09 06:43:51;;;;;;;7.30;3.35;;;;;;;;;;5072026;28;20459;-71
2024/01/09 06:46:17;;;;;;;9.70;3.72;;;;;;;;;;5072046;28;20115;-70
2024/01/09 06:48:43;;;;;;;5.70;3.22;;;;;;;;;;5072340;28;20063;-71
2024/01/09 06:51:09;;;;;;;7.40;3.28;;;;;;;;;;5071981;28;20485;-70
2024/01/09 06:53:35;;;;;;;6.50;3.22;;;;;;;;;;5072118;28;20044;-70
2024/01/09 06:56:01;;;;;;;7.72;3.35;;;;;;;;;;5073441;28;20089;-70
2024/01/09 06:58:27;;;;;;;6.72;2.90;;;;;;;;;;5055221;28;20045;-70
2024/01/09 07:00:53;;;;;;;6.43;3.45;;;;;;;;;;5072998;28;20185;-70
2024/01/09 07:03:19;;;;;;;4.68;2.65;;;;;;;;;;5071649;28;20116;-70
2024/01/09 07:05:45;;;;;;;5.32;2.72;;;;;;;;;;5072019;28;20106;-70
2024/01/09 07:08:11;;;;;;;7.00;3.28;;;;;;;;;;5073358;28;20040;-71
2024/01/09 07:10:37;;;;;;;6.75;2.90;;;;;;;;;;5071698;28;20123;-71
2024/01/09 07:13:03;;;;;;;5.00;3.10;;;;;;;;;;5071755;28;20472;-70
2024/01/09 07:15:29;;;;;;;6.28;3.08;;;;;;;;;;5073258;28;20047;-70
2024/01/09 07:17:55;;;;;;;6.15;3.17;;;;;;;;;;5071705;28;20123;-70
2024/01/09 07:20:21;;;;;;;5.18;3.13;;;;;;;;;;5073132;28;20120;-70
2024/01/09 07:22:48;;;;;;;7.80;3.65;;;;;;;;;;5071662;28;20447;-70
2024/01/09 07:25:14;;;;;;;6.93;3.40;;;;;;;;;;5071705;28;20068;-71
2024/01/09 07:27:40;;;;;;;4.68;2.72;;;;;;;;;;5071935;28;20033;-70
2024/01/09 07:30:07;;;;;;;9.02;3.22;;;;;;;;;;5071678;28;20468;-71
2024/01/09 07:32:33;;;;;;;5.72;3.33;;;;;;;;;;5071628;28;20045;-71
2024/01/09 07:34:59;;;;;;;7.28;3.22;;;;;;;;;;5071484;28;20076;-71
2024/01/09 07:37:26;;;;;;;6.78;2.95;;;;;;;;;;5071619;28;20405;-71
2024/01/09 07:39:52;;;;;;;6.20;3.20;;;;;;;;;;5071483;28;20043;-71
2024/01/09 07:42:17;;;;;;;5.75;3.17;;;;;;;;;;5071790;28;20036;-71
2024/01/09 07:44:43;;;;;;;7.13;3.40;;;;;;;;;;5071773;28;20037;-71
2024/01/09 07:47:11;;;;;;;5.53;3.22;;;;;;;;;;5071817;28;20119;-71
2024/01/09 07:49:38;;;;;;;5.82;2.95;;;;;;;;;;5071497;28;20055;-71
2024/01/09 07:52:04;;;;;;;9.18;4.10;;;;;;;;;;5072974;28;20124;-71
2024/01/09 07:54:30;;;;;;;10.50;3.90;;;;;;;;;;5071307;28;20076;-71
2024/01/09 07:56:56;;;;;;;7.90;3.67;;;;;;;;;;5072879;28;20153;-71
2024/01/09 07:59:22;;;;;;;8.55;3.22;;;;;;;;;;5071664;28;20128;-71
2024/01/09 08:01:54;;;;;;;6.93;3.60;;;;;;;;;;5072557;28;20481;-71
2024/01/09 08:04:21;;;;;;;8.80;3.80;;;;;;;;;;5071379;28;20052;-71
2024/01/09 08:06:47;;;;;;;7.13;3.40;;;;;;;;;;5071291;28;20146;-71
2024/01/09 08:09:13;;;;;;;8.75;4.80;;;;;;;;;;5071531;28;20120;-71
2024/01/09 08:11:39;;;;;;;7.70;3.35;;;;;;;;;;5071206;28;20416;-71
2024/01/09 08:14:05;;;;;;;7.47;3.00;;;;;;;;;;5071148;28;20119;-71
2024/01/09 08:16:31;;;;;;;7.43;3.33;;;;;;;;;;5054491;28;20102;-71
2024/01/09 08:18:57;;;;;;;6.15;3.13;;;;;;;;;;5072933;28;20040;-71
2024/01/09 08:21:23;;;;;;;8.93;4.20;;;;;;;;;;5072907;28;20493;-71
2024/01/09 08:23:49;;;;;;;8.68;4.20;;;;;;;;;;5075134;28;20036;-71
2024/01/09 08:26:15;;;;;;;6.65;3.63;;;;;;;;;;5075012;28;20036;-71
2024/01/09 08:28:41;;;;;;;7.68;3.28;;;;;;;;;;5076126;28;20085;-71
2024/01/09 08:31:07;;;;;;;5.72;2.90;;;;;;;;;;5074550;28;20040;-71
2024/01/09 08:33:34;;;;;;;7.63;3.22;;;;;;;;;;5074992;28;20476;-71
2024/01/09 08:36:00;;;;;;;6.30;3.25;;;;;;;;;;5074789;28;20158;-71
2024/01/09 08:38:26;;;;;;;7.25;3.35;;;;;;;;;;5076027;28;20115;-71
2024/01/09 08:40:55;;;;;;;6.05;2.90;;;;;;;;;;5074370;28;20178;-71
2024/01/09 08:43:21;;;;;;;5.78;3.08;;;;;;;;;;5074287;28;20043;-71
2024/01/09 08:45:49;;;;;;;7.05;3.17;;;;;;;;;;5074358;28;20032;-71
2024/01/09 08:48:15;;;;;;;6.03;3.08;;;;;;;;;;5075831;28;20052;-71
2024/01/09 08:50:41;;;;;;;5.88;3.00;;;;;;;;;;5074275;28;20044;-71
2024/01/09 08:53:07;;;;;;;6.65;3.25;;;;;;;;;;5074176;28;20044;-71
2024/01/09 08:55:34;;;;;;;6.40;3.15;;;;;;;;;;5074165;28;20051;-71
2024/01/09 08:58:00;;;;;;;7.38;3.25;;;;;;;;;;5074134;28;20079;-71
2024/01/09 09:00:26;;;;;;;4.15;2.50;;;;;;;;;;5074143;28;20076;-70
2024/01/09 09:02:52;;;;;;;5.60;2.80;;;;;;;;;;5073796;28;20045;-70
2024/01/09 09:05:18;;;;;;;8.85;3.40;;;;;;;;;;5074052;28;20115;-70
2024/01/09 09:07:45;;;;;;;6.10;3.22;;;;;;;;;;5073945;28;20041;-70
2024/01/09 09:10:11;;;;;;;6.45;3.00;;;;;;;;;;5075389;28;20048;-70
2024/01/09 09:12:37;;;;;;;5.65;3.10;;;;;;;;;;5073823;28;20509;-70
2024/01/09 09:15:03;;;;;;;7.32;2.78;;;;;;;;;;5075276;28;20078;-70
2024/01/09 09:17:30;;;;;;;5.93;3.17;;;;;;;;;;5075280;28;20041;-70
2024/01/09 09:19:56;;;;;;;5.03;2.88;;;;;;;;;;5073830;28;20040;-70
2024/01/09 09:22:25;;;;;;;6.45;2.85;;;;;;;;;;5075171;28;20079;-70
2024/01/09 09:24:52;;;;;;;6.07;3.28;;;;;;;;;;5073772;28;20040;-71
2024/01/09 09:27:18;;;;;;;5.32;2.72;;;;;;;;;;5073576;28;20037;-71
2024/01/09 09:29:44;;;;;;;6.45;3.40;;;;;;;;;;5075046;28;20041;-71
2024/01/09 09:32:10;;;;;;;4.60;2.42;;;;;;;;;;5073415;28;20063;-71
2024/01/09 09:34:38;;;;;;;4.88;2.80;;;;;;;;;;5073141;28;20391;-71
2024/01/09 09:37:04;;;;;;;5.07;2.83;;;;;;;;;;5056701;28;20048;-70
2024/01/09 09:39:30;;;;;;;9.35;3.05;;;;;;;;;;5073250;28;20052;-70
2024/01/09 09:41:59;;;;;;;6.60;2.90;;;;;;;;;;5073299;28;20049;-70
2024/01/09 09:44:26;;;;;;;5.78;2.53;;;;;;;;;;5073325;28;20036;-71
2024/01/09 09:46:52;;;;;;;5.80;2.80;;;;;;;;;;5074525;28;20032;-71
2024/01/09 09:49:22;;;;;;;4.63;2.47;;;;;;;;;;5073100;28;20110;-71
2024/01/09 09:51:49;;;;;;;6.03;2.72;;;;;;;;;;5074587;28;20124;-71
2024/01/09 09:54:15;;;;;;;6.07;2.80;;;;;;;;;;5072931;28;20040;-71
2024/01/09 09:56:41;;;;;;;6.00;2.55;;;;;;;;;;5072943;28;20039;-71
2024/01/09 09:59:12;;;;;;;5.78;3.45;;;;;;;;;;5072921;28;20067;-71
2024/01/09 10:01:39;;;;;;;5.30;2.75;;;;;;;;;;5072922;28;20097;-71
2024/01/09 10:04:26;;;;;;;4.15;2.67;;;;;;;;;;5073974;28;20040;-71
2024/01/09 10:06:53;;;;;;;5.93;2.67;;;;;;;;;;5074868;28;20110;-71
2024/01/09 10:09:20;;;;;;;6.50;3.05;;;;;;;;;;5072963;28;20489;-71
2024/01/09 10:11:50;;;;;;;5.10;3.08;;;;;;;;;;5074204;28;20072;-71
2024/01/09 10:14:16;;;;;;;8.43;2.85;;;;;;;;;;5074060;28;20028;-71
2024/01/09 10:16:49;;;;;;;5.15;2.70;;;;;;;;;;5072583;28;20048;-71
2024/01/09 10:19:15;;;;;;;;;;;;;;;;;;5073158;28;20047;-71
2024/01/09 10:21:41;;;;;;;7.00;2.40;;;;;;;;;;5072489;28;19917;-71
2024/01/09 10:24:08;;;;;;;6.88;2.70;;;;;;;;;;5072623;28;20048;-71
2024/01/09 10:26:34;;;;;;;5.47;2.90;;;;;;;;;;5072400;28;20044;-71
2024/01/09 10:29:01;;;;;;;6.95;2.60;;;;;;;;;;5055721;28;20044;-71
2024/01/09 10:31:29;;;;;;;5.03;2.40;;;;;;;;;;5072587;28;20051;-71
2024/01/09 10:33:56;;;;;;;7.47;2.65;;;;;;;;;;5055583;28;20040;-71
2024/01/09 10:36:22;;;;;;;4.22;2.42;;;;;;;;;;5072196;28;20119;-71
2024/01/09 10:38:48;;;;;;;6.10;2.85;;;;;;;;;;5073760;28;20036;-71
2024/01/09 10:41:18;;;;;;;6.20;2.63;;;;;;;;;;5073325;28;20493;-71
2024/01/09 10:43:44;;;;;;;6.07;2.65;;;;;;;;;;5072273;28;20048;-71
2024/01/09 10:46:11;;;;;;;5.43;2.60;;;;;;;;;;5073060;28;20087;-71
2024/01/09 10:48:38;;;;;;;5.57;2.90;;;;;;;;;;5072057;28;20037;-71
2024/01/09 10:51:04;;;;;;;5.07;2.60;;;;;;;;;;5072113;28;20048;-71
2024/01/09 10:53:31;;;;;;;5.75;3.22;;;;;;;;;;5071872;28;20127;-71
2024/01/09 10:56:00;;;;;;;15.38;2.85;;;;;;;;;;5072148;28;20102;-71
2024/01/09 10:58:26;;;;;;;6.20;2.72;;;;;;;;;;5073461;28;20036;-71
2024/01/09 11:00:52;;;;;;;4.60;2.60;;;;;;;;;;5071853;28;20490;-70
2024/01/09 11:03:19;;;;;;;7.05;3.38;;;;;;;;;;5073147;28;20131;-70
2024/01/09 11:05:46;;;;;;;6.03;2.53;;;;;;;;;;5071869;28;20071;-70
2024/01/09 11:08:16;;;;;;;5.78;2.38;;;;;;;;;;5071855;28;20493;-71
2024/01/09 11:10:43;;;;;;;5.32;2.53;;;;;;;;;;5071881;28;20044;-71
2024/01/09 11:13:10;;;;;;;5.10;2.30;;;;;;;;;;5072024;28;20049;-71
2024/01/09 11:15:44;;;;;;;7.38;3.08;;;;;;;;;;5073003;28;20622;-71
2024/01/09 11:18:12;;;;;;;4.18;2.38;;;;;;;;;;5071812;28;20044;-70
2024/01/09 11:20:38;;;;;;;5.15;2.50;;;;;;;;;;5073198;28;20040;-70
2024/01/09 11:23:04;;;;;;;6.43;2.50;;;;;;;;;;5071824;28;20032;-70
2024/01/09 11:25:32;;;;;;;5.45;2.67;;;;;;;;;;5073462;28;20083;-71
2024/01/09 11:27:58;;;;;;;6.10;2.55;;;;;;;;;;5072198;28;20490;-71
2024/01/09 11:30:28;;;;;;;4.78;2.60;;;;;;;;;;5073135;28;20440;-71
2024/01/09 11:32:56;;;;;;;4.95;2.80;;;;;;;;;;5055090;28;20050;-71
2024/01/09 11:35:22;;;;;;;5.10;2.40;;;;;;;;;;5054882;28;20051;-71
2024/01/09 11:37:49;;;;;;;6.05;2.90;;;;;;;;;;5071553;28;20049;-73
2024/01/09 11:40:16;;;;;;;4.47;2.38;;;;;;;;;;5073068;28;20090;-71
2024/01/09 11:42:46;;;;;;;5.70;2.50;;;;;;;;;;5071768;28;20042;-71
2024/01/09 11:45:13;;;;;;;4.90;2.70;;;;;;;;;;5071561;28;20120;-71
2024/01/09 11:47:39;;;;;;;4.63;2.80;;;;;;;;;;5071495;28;20052;-69
2024/01/09 11:50:07;;;;;;;5.97;2.72;;;;;;;;;;5071457;28;20083;-69
2024/01/09 11:52:33;;;;;;;4.28;2.72;;;;;;;;;;5071663;28;20052;-69
2024/01/09 11:54:59;;;;;;;5.20;2.70;;;;;;;;;;5071357;28;20052;-69
2024/01/09 11:57:25;;;;;;;5.97;2.95;;;;;;;;;;5074806;28;20131;-69
2024/01/09 11:59:51;;;;;;;6.10;2.60;;;;;;;;;;5075100;28;20135;-69
2024/01/09 12:02:19;;;;;;;4.72;2.63;;;;;;;;;;5075192;28;20045;-69
2024/01/09 12:04:45;;;;;;;4.55;2.72;;;;;;;;;;5076170;28;20516;-69
2024/01/09 12:07:14;;;;;;;3.25;2.20;;;;;;;;;;5075067;28;20409;-69
2024/01/09 12:09:40;;;;;;;8.48;2.75;;;;;;;;;;5075246;28;20071;-69
2024/01/09 12:12:10;;;;;;;5.60;2.70;;;;;;;;;;5074965;28;20086;-69
2024/01/09 12:14:36;;;;;;;5.65;2.92;;;;;;;;;;5074846;28;20044;-69
2024/01/09 12:17:18;;;;;;;4.15;2.30;;;;;;;;;;5076388;28;20045;-69
2024/01/09 12:19:44;;;;;;;5.50;3.20;;;;;;;;;;5076283;28;20041;-69
2024/01/09 12:22:10;;;;;;;6.45;3.33;;;;;;;;;;5076296;28;20032;-69
2024/01/09 12:24:37;;;;;;;6.18;3.13;;;;;;;;;;5076213;28;20028;-70
2024/01/09 12:27:03;;;;;;;4.45;2.40;;;;;;;;;;5076099;28;20041;-70
2024/01/09 12:29:30;;;;;;;4.00;2.20;;;;;;;;;;5074576;28;20040;-69
2024/01/09 12:31:56;;;;;;;4.50;2.80;;;;;;;;;;5074873;28;20115;-69
2024/01/09 12:34:22;;;;;;;4.93;2.72;;;;;;;;;;5074508;28;20041;-69
2024/01/09 12:36:50;;;;;;;8.70;2.78;;;;;;;;;;5074768;28;20036;-70
2024/01/09 12:39:16;;;;;;;3.92;2.63;;;;;;;;;;5076247;28;20040;-70
2024/01/09 12:41:43;;;;;;;3.88;2.53;;;;;;;;;;5074701;28;20528;-70
2024/01/09 12:44:13;;;;;;;3.92;2.80;;;;;;;;;;5074591;28;20075;-70
2024/01/09 12:46:43;;;;;;;3.70;2.35;;;;;;;;;;5074460;28;20509;-70
2024/01/09 12:49:09;;;;;;;5.80;2.55;;;;;;;;;;5074926;28;20048;-70
2024/01/09 12:51:38;;;;;;;3.42;2.17;;;;;;;;;;5074594;28;20051;-70
2024/01/09 12:54:04;;;;;;;2.97;2.10;;;;;;;;;;5075389;28;20045;-70
2024/01/09 12:56:30;;;;;;;3.47;2.17;;;;;;;;;;5075390;28;20590;-72
2024/01/09 12:58:56;;;;;;;6.70;2.25;;;;;;;;;;5074161;28;20040;-70
2024/01/09 13:01:25;;;;;;;3.17;1.67;;;;;;;;;;5075612;28;20096;-70
2024/01/09 13:03:51;;;;;;;3.45;1.80;;;;;;;;;;5073874;28;20052;-70
2024/01/09 13:06:17;;;;;;;5.20;3.08;;;;;;;;;;5075508;28;20090;-70
2024/01/09 13:08:44;;;;;;;4.43;2.20;;;;;;;;;;5073348;28;20040;-69
2024/01/09 13:11:10;;;;;;;4.85;2.50;;;;;;;;;;5075601;28;20076;-69
2024/01/09 13:13:37;;;;;;;3.88;2.35;;;;;;;;;;5073831;28;20053;-70
2024/01/09 13:16:04;;;;;;;4.03;2.28;;;;;;;;;;5073796;28;20052;-70
2024/01/09 13:18:30;;;;;;;4.45;2.47;;;;;;;;;;5073795;28;20387;-70
2024/01/09 13:20:56;;;;;;;4.90;2.28;;;;;;;;;;5075206;28;20040;-70
2024/01/09 13:23:23;;;;;;;5.80;2.28;;;;;;;;;;5073595;28;20072;-70
2024/01/09 13:25:51;;;;;;;3.35;2.50;;;;;;;;;;5075172;28;20107;-70
2024/01/09 13:28:17;;;;;;;4.00;2.03;;;;;;;;;;5073584;28;20045;-70
2024/01/09 13:30:43;;;;;;;3.08;1.98;;;;;;;;;;5074709;28;20040;-70
2024/01/09 13:33:09;;;;;;;3.72;2.10;;;;;;;;;;5073431;28;20097;-70
2024/01/09 13:35:36;;;;;;;3.25;2.13;;;;;;;;;;5074956;28;20059;-70
2024/01/09 13:38:05;;;;;;;3.97;2.38;;;;;;;;;;5074859;28;20045;-70
2024/01/09 13:40:32;;;;;;;3.63;2.10;;;;;;;;;;5073279;28;20053;-70
2024/01/09 13:42:58;;;;;;;3.63;2.30;;;;;;;;;;5073214;28;20049;-70
2024/01/09 13:45:25;;;;;;;5.20;1.98;;;;;;;;;;5073232;28;20485;-70
2024/01/09 13:47:53;;;;;;;4.72;1.98;;;;;;;;;;5073441;28;20123;-70
2024/01/09 13:50:19;;;;;;;3.72;1.95;;;;;;;;;;5073129;28;20061;-70
2024/01/09 13:52:45;;;;;;;3.70;2.25;;;;;;;;;;5073100;28;20519;-70
2024/01/09 13:55:12;;;;;;;2.92;2.00;;;;;;;;;;5073218;28;20220;-70
2024/01/09 13:57:40;;;;;;;4.00;2.00;;;;;;;;;;5072956;28;20059;-70
2024/01/09 14:00:09;;;;;;;4.13;1.95;;;;;;;;;;5072868;28;20048;-71
2024/01/09 14:02:36;;;;;;;3.25;1.92;;;;;;;;;;5073061;28;20040;-71
2024/01/09 14:05:03;;;;;;;3.38;1.88;;;;;;;;;;5073044;28;20052;-70
2024/01/09 14:07:29;;;;;;;3.50;1.60;;;;;;;;;;5072806;28;20074;-70
2024/01/09 14:09:56;;;;;;;3.78;1.60;;;;;;;;;;5072724;28;20045;-70
2024/01/09 14:12:23;;;;;;;4.25;2.10;;;;;;;;;;5072697;28;20124;-70
2024/01/09 14:14:49;;;;;;;3.20;1.67;;;;;;;;;;5072935;28;20043;-70
2024/01/09 14:17:15;;;;;;;4.72;1.90;;;;;;;;;;5072629;28;20045;-70
2024/01/09 14:19:41;;;;;;;3.90;1.60;;;;;;;;;;5071884;28;20040;-70
2024/01/09 14:22:07;;;;;;;4.93;1.77;;;;;;;;;;5072534;28;20049;-70
2024/01/09 14:24:33;;;;;;;4.82;1.75;;;;;;;;;;5072360;28;20557;-70
2024/01/09 14:26:59;;;;;;;3.05;1.67;;;;;;;;;;5072696;28;20043;-70
2024/01/09 14:29:29;;;;;;;3.53;2.05;;;;;;;;;;5072403;28;20405;-70
2024/01/09 14:31:55;;;;;;;5.72;2.90;;;;;;;;;;5072294;28;20072;-70
2024/01/09 14:34:21;;;;;;;5.35;1.92;;;;;;;;;;5072252;28;20425;-70
2024/01/09 14:36:47;;;;;;;2.67;1.70;;;;;;;;;;5072529;28;20042;-71
2024/01/09 14:39:15;;;;;;;3.95;1.80;;;;;;;;;;5072190;28;20036;-71